Enter the Airport ICAO Code

Search by Airport or City

Current Weather

PAEN | Kenai Municipal Airport

Kenai, Alaska, United States

Last Update 52 Minutes Ago

Completely Cloudy Sky

Temperature of 11 ºC

Light Winds from South

Temperature

11 ºC

Dew Point Temperature

09 ºC

Relative Humidity

87.52 %

Wind Direction

South (170º, Without Significant Variations)

Wind Velocity

6 km/h (03 kt)

Gusts

None

Visibility

Greater than 10 Miles

Sea Level Pressure

29.94 inHg (Inches of Mercury)

Layers of Clouds

30% to 60% of Sky Covered from 549 mts (1800 ft) Above Ground Level.

30% to 60% of Sky Covered from 762 mts (2500 ft) Above Ground Level.

90% to 100% of Sky Covered from 2591 mts (8500 ft) Above Ground Level.

METAR PAEN 121453Z 17003KT 10SM SCT018 SCT025 OVC085 11/09 A2994 RMK AO2 SLP140 T01110094 58001

Weather Forecast

PAEN | Kenai Municipal Airport

Kenai, Alaska, United States

Forecast valid for the next 20 Hours

From now on it is expected:

Completely Cloudy Sky

Light to Moderate Winds from Variable Directions

In 5 hours it is expected the begining of:

Rain Shower

Light to Moderate Winds from West

Maximum Temperature

No Data

Minimum Temperature

No Data

TAF PAEN 121140Z 1212/1312 VRB05KT P6SM BKN050 OVC070 TEMPO 1212/1216 5SM BR BKN005 FM122100 28006KT P6SM VCSH SCT050 BKN080